Have a Safe July 4th! 

Flight Track Log - Related Links

Times and Time Zones

All times are in EDT time to prevent confusion due to time zone crossing. See the N908CB flight status page for this flight to view local times or setup timezone preferences in your user account.

Time Position Orientation Groundspeed Altitude Reporting Facility
EDT Latitude Longitude Course Direction KTS MPH feet Rate Location/Type
Sat 12:02:12 PM 33.8780 -84.3070 14° North  Level FlightAware ADS-B
Sat 12:08:47 PM 33.8780 -84.3030 90° East 28 32 72 Level FlightAware ADS-B
Sat 12:09:04 PM 33.8790 -84.3020 40° Northeast 21 24 154 Level FlightAware ADS-B
Sat 12:11:00 PM 33.9365 -84.3543 323° Northwest  Level FlightAware Approximate
Sat 12:12:00 PM 33.9670 -84.3803 326° Northwest  Level FlightAware Approximate
Sat 12:13:00 PM 33.9981 -84.4051 326° Northwest  Level FlightAware Approximate
Sat 12:14:00 PM 34.0291 -84.4299 326° Northwest  Level FlightAware Approximate
Sat 12:14:38 PM 33.8720 -84.3040 326° Northwest 75 86 900  Level FlightAware ADS-B
Sat 12:14:52 PM 33.8670 -84.3060 198° South 79 91 1,100 429 Climbing FlightAware ADS-B
Sat 12:15:20 PM 33.8560 -84.3100 197° South 93 107 1,200 600 Climbing FlightAware ADS-B
Sat 12:15:32 PM 33.8510 -84.3130 206° Southwest 83 96 1,500 1,000 Climbing FlightAware ADS-B
Sat 12:15:44 PM 33.8490 -84.3170 239° Southwest 90 104 1,600 600 Climbing FlightAware ADS-B
Sat 12:16:12 PM 33.8520 -84.3300 286° West 91 105 1,900 522 Climbing FlightAware ADS-B
Sat 12:16:30 PM 33.8570 -84.3380 307° West 102 117 2,000 545 Climbing FlightAware ADS-B
Sat 12:16:56 PM 33.8640 -84.3500 305° West 102 117 2,300 667 Climbing FlightAware ADS-B
Sat 12:17:24 PM 33.8720 -84.3620 309° West 98 113 2,600 643 Climbing FlightAware ADS-B
Sat 12:17:52 PM 33.8800 -84.3750 307° West 99 114 2,900 643 Climbing FlightAware ADS-B
Sat 12:18:20 PM 33.8890 -84.3850 317° Northwest 101 116 3,200 600 Climbing FlightAware ADS-B
Sat 12:18:32 PM 33.8940 -84.3890 326° Northwest 101 116 3,300 600 Climbing FlightAware ADS-B
Sat 12:19:00 PM 33.9050 -84.3970 329° Northwest 99 114 3,600 621 Climbing FlightAware ADS-B
Sat 12:19:30 PM 33.9170 -84.4050 331° Northwest 100 115 3,900 310 Climbing FlightAware ADS-B
Sat 12:19:58 PM 33.9300 -84.4140 330° Northwest 126 145 3,900  Level FlightAware ADS-B
Sat 12:20:14 PM 33.9380 -84.4200 328° Northwest 132 152 3,900  Level FlightAware ADS-B
Sat 12:20:42 PM 33.9540 -84.4300 333° Northwest 139 160 3,900  Level FlightAware ADS-B
Sat 12:21:10 PM 33.9700 -84.4420 328° Northwest 143 165 3,900  Level FlightAware ADS-B
Sat 12:21:38 PM 33.9860 -84.4530 330° Northwest 140 161 3,900  Level FlightAware ADS-B
Sat 12:22:02 PM 33.9990 -84.4620 330° Northwest 143 165 3,900  Level FlightAware ADS-B
Sat 12:22:16 PM 34.0080 -84.4670 335° Northwest 145 167 3,900 300 Level FlightAware ADS-B
Sat 12:22:42 PM 34.0230 -84.4780 329° Northwest 130 150 4,100 783 Climbing FlightAware ADS-B
Sat 12:23:02 PM 34.0330 -84.4840 334° Northwest 112 129 4,500 750 Climbing FlightAware ADS-B
Sat 12:23:30 PM 34.0450 -84.4920 331° Northwest 107 123 4,700 462 Climbing FlightAware ADS-B
Sat 12:23:54 PM 34.0560 -84.4990 332° Northwest 107 123 4,900 571 Climbing FlightAware ADS-B
Sat 12:24:12 PM 34.0640 -84.5040 333° Northwest 109 125 5,100 571 Climbing FlightAware ADS-B
Sat 12:24:36 PM 34.0750 -84.5100 336° Northwest 110 127 5,300 577 Climbing FlightAware ADS-B
Sat 12:25:04 PM 34.0870 -84.5180 331° Northwest 109 125 5,600 536 Climbing FlightAware ADS-B
Sat 12:25:32 PM 34.1000 -84.5260 333° Northwest 110 127 5,800 429 Climbing FlightAware ADS-B
Sat 12:25:46 PM 34.1060 -84.5290 338° Northwest 115 132 5,900 150 Climbing FlightAware ADS-B
Sat 12:26:12 PM 34.1210 -84.5380 334° Northwest 131 151 5,900  Level FlightAware ADS-B
Sat 12:26:42 PM 34.1370 -84.5480 333° Northwest 140 161 5,900  Level FlightAware ADS-B
Sat 12:27:10 PM 34.1530 -84.5580 333° Northwest 142 163 5,900  Level FlightAware ADS-B
Sat 12:27:28 PM 34.1640 -84.5640 336° Northwest 143 165 5,900  Level FlightAware ADS-B
Sat 12:27:54 PM 34.1800 -84.5740 333° Northwest 144 166 5,900  Level FlightAware ADS-B
Sat 12:28:10 PM 34.1900 -84.5800 334° Northwest 145 167 5,900  Level FlightAware ADS-B
Sat 12:28:34 PM 34.2040 -84.5890 332° Northwest 146 168 5,900  Level FlightAware ADS-B
Sat 12:28:48 PM 34.2120 -84.5940 333° Northwest 145 167 5,900  Level FlightAware ADS-B
Sat 12:29:18 PM 34.2300 -84.6040 335° Northwest 144 166 5,900  Level FlightAware ADS-B
Sat 12:29:30 PM 34.2370 -84.6090 329° Northwest 143 165 5,900  Level FlightAware ADS-B
Sat 12:30:00 PM 34.2550 -84.6190 335° Northwest 143 165 5,900  Level FlightAware ADS-B
Sat 12:30:28 PM 34.2720 -84.6300 332° Northwest 144 166 5,900  Level FlightAware ADS-B
Sat 12:30:52 PM 34.2860 -84.6390 332° Northwest 144 166 5,900  Level FlightAware ADS-B
Sat 12:31:20 PM 34.3010 -84.6510 327° Northwest 142 163 5,900  Level FlightAware ADS-B
Sat 12:31:50 PM 34.3180 -84.6640 328° Northwest 143 165 5,900  Level FlightAware ADS-B
Sat 12:32:20 PM 34.3350 -84.6770 328° Northwest 144 166 5,900  Level FlightAware ADS-B
Sat 12:32:34 PM 34.3430 -84.6840 324° Northwest 144 166 5,900  Level FlightAware ADS-B
Sat 12:33:00 PM 34.3570 -84.6940 329° Northwest 143 165 5,900  Level FlightAware ADS-B
Sat 12:33:16 PM 34.3660 -84.7010 327° Northwest 143 165 5,900  Level FlightAware ADS-B
Sat 12:33:44 PM 34.3820 -84.7130 328° Northwest 140 161 5,900  Level FlightAware ADS-B
Sat 12:34:14 PM 34.3990 -84.7250 330° Northwest 141 162 5,900  Level FlightAware ADS-B
Sat 12:34:38 PM 34.4130 -84.7350 329° Northwest 142 163 5,900  Level FlightAware ADS-B
Sat 12:35:08 PM 34.4290 -84.7480 326° Northwest 142 163 5,900  Level FlightAware ADS-B
Sat 12:35:36 PM 34.4450 -84.7600 328° Northwest 141 162 5,900  Level FlightAware ADS-B
Sat 12:36:04 PM 34.4610 -84.7710 330° Northwest 141 162 5,900  Level FlightAware ADS-B
Sat 12:36:16 PM 34.4680 -84.7760 330° Northwest 141 162 5,900  Level FlightAware ADS-B
Sat 12:36:46 PM 34.4830 -84.7880 327° Northwest 141 162 5,900  Level FlightAware ADS-B
Sat 12:36:54 PM 34.4880 -84.7920 327° Northwest 141 162 5,900  Level FlightAware ADS-B
Sat 12:37:24 PM 34.5050 -84.8040 330° Northwest 144 166 5,900  Level FlightAware ADS-B
Sat 12:37:54 PM 34.5230 -84.8180 327° Northwest 144 166 5,900  Level FlightAware ADS-B
Sat 12:38:24 PM 34.5390 -84.8300 328° Northwest 143 165 5,900  Level FlightAware ADS-B
Sat 12:38:52 PM 34.5550 -84.8420 328° Northwest 145 167 5,900  Level FlightAware ADS-B
Sat 12:39:19 PM 34.5680 -84.8520 328° Northwest 143 165 5,900  Level FlightAware ADS-B
Sat 12:39:36 PM 34.5800 -84.8610 328° Northwest 142 163 5,900  Level FlightAware ADS-B
Sat 12:40:03 PM 34.5950 -84.8720 329° Northwest 143 165 5,900  Level FlightAware ADS-B
Sat 12:40:28 PM 34.6100 -84.8830 329° Northwest 143 165 5,900  Level FlightAware ADS-B
Sat 12:40:56 PM 34.6260 -84.8950 328° Northwest 143 165 5,900  Level FlightAware ADS-B
Sat 12:41:12 PM 34.6340 -84.9010 328° Northwest 142 163 5,900  Level FlightAware ADS-B
Sat 12:41:40 PM 34.6500 -84.9130 328° Northwest 142 163 5,900  Level FlightAware ADS-B
Sat 12:42:06 PM 34.6650 -84.9240 329° Northwest 142 163 5,900  Level FlightAware ADS-B
Sat 12:42:22 PM 34.6740 -84.9310 327° Northwest 143 165 5,900  Level FlightAware ADS-B
Sat 12:42:50 PM 34.6890 -84.9420 329° Northwest 143 165 5,900  Level FlightAware ADS-B
Sat 12:43:18 PM 34.7050 -84.9550 326° Northwest 142 163 5,900  Level FlightAware ADS-B
Sat 12:43:46 PM 34.7210 -84.9660 331° Northwest 148 170 5,900 -321 Level FlightAware ADS-B
Sat 12:44:14 PM 34.7380 -84.9790 328° Northwest 156 180 5,600 -643 Descending FlightAware ADS-B
Sat 12:44:42 PM 34.7560 -84.9920 329° Northwest 151 174 5,300 -453 Descending FlightAware ADS-B
Sat 12:45:07 PM 34.7680 -85.0020 326° Northwest 145 167 5,200 -462 Descending FlightAware ADS-B
Sat 12:45:21 PM 34.7770 -85.0080 331° Northwest 145 167 5,000 -558 Descending FlightAware ADS-B
Sat 12:45:50 PM 34.7950 -85.0220 327° Northwest 145 167 4,800 -508 Descending FlightAware ADS-B
Sat 12:46:20 PM 34.8120 -85.0350 328° Northwest 147 169 4,500 -536 Descending FlightAware ADS-B
Sat 12:46:46 PM 34.8280 -85.0460 331° Northwest 150 173 4,300 -536 Descending FlightAware ADS-B
Sat 12:47:16 PM 34.8450 -85.0600 326° Northwest 151 174 4,000 -444 Descending FlightAware ADS-B
Sat 12:47:40 PM 34.8590 -85.0700 330° Northwest 142 163 3,900 -158 Descending FlightAware ADS-B
Sat 12:47:54 PM 34.8640 -85.0740 327° Northwest 141 162 3,900 -533 Level FlightAware ADS-B
Sat 12:48:25 PM 34.8830 -85.0880 329° Northwest 149 171 3,500 -615 Descending FlightAware ADS-B
Sat 12:48:33 PM 34.8840 -85.0880 360° North 149 171 3,500 -143 Level FlightAware ADS-B
Sat 12:49:07 PM 34.9010 -85.1020 326° Northwest 152 175 3,400 -176 Descending FlightAware ADS-B
Sat 12:51:00 PM 34.9582 -85.1469 327° Northwest  Level FlightAware Approximate
Sat 12:52:00 PM 34.9887 -85.1703 331° Northwest  Level FlightAware Approximate
Sat 12:53:00 PM 35.0204 -85.1914 331° Northwest  Level FlightAware Approximate
Sat 12:54:00 PM 35.0333 -85.2000 331° Northwest  Level FlightAware Approximate
Sat 12:55:00 PM 35.0352 -85.2036 331° Northwest  Level Estimated
Sat 12:56:00 PM 35.0333 -85.2000 331° Northwest  Level FlightAware Approximate
Sat 12:57:00 PM 35.0352 -85.2036 331° Northwest  Level Estimated
Sat 12:58:00 PM 35.0333 -85.2000 331° Northwest  Level FlightAware Approximate
Sat 12:59:00 PM 35.0352 -85.2036 331° Northwest  Level Estimated
Sat 01:00:00 PM 35.0333 -85.2000 331° Northwest  Level FlightAware Approximate

Login

Don't have an account? Register now (free) for customized features, flight alerts, and more!